Terminal Aerodrome Forecast
Issued by NWS

Home | Current Version | Previous Version | Graphics & Text | Print | Product List | Glossary On
Versions: 1 2 3 4 5 6 7 8 9 10 11 12 13 14 15 16 17 18 19 20
764
FTUS43 KBIS 281122
TAFDIK
TAF
KDIK 281122Z 2812/2912 08008KT P6SM OVC090
     FM281800 13007KT P6SM OVC130
     FM290000 14006KT P6SM BKN080
     FM290500 17006KT P6SM BKN060
     FM291000 19005KT P6SM BKN025=

USA.gov is the U.S. government's official web portal to all federal, state and local government web resources and services.